Time;durP1;ratioP1;P1;durP2;ratioP2;P2;SDS_P1;SDS_P2;PMS_P1;PMS_P2;Temp;Humidity;BMP_temperature;BMP_pressure;BME280_temperature;BME280_humidity;BME280_pressure;Samples;Min_cycle;Max_cycle;Signal;HPM_P1;HPM_P2
2023/04/06 00:00:46;;;;;;;1.60;1.47;;;3.90;98.20;;;;;;5000174;28;21228;-73
2023/04/06 00:03:14;;;;;;;1.70;1.60;;;3.80;98.20;;;;;;5014004;28;20508;-74
2023/04/06 00:05:41;;;;;;;1.50;1.40;;;3.80;98.20;;;;;;5015281;28;20524;-73
2023/04/06 00:08:08;;;;;;;1.50;1.40;;;3.80;98.20;;;;;;5001614;28;21106;-74
2023/04/06 00:10:35;;;;;;;1.50;1.40;;;3.70;98.20;;;;;;5014240;28;20507;-74
2023/04/06 00:13:02;;;;;;;1.57;1.40;;;3.70;98.20;;;;;;4985826;28;21051;-74
2023/04/06 00:15:29;;;;;;;1.57;1.43;;;3.70;98.20;;;;;;5017165;28;20466;-72
2023/04/06 00:17:56;;;;;;;1.53;1.40;;;3.70;98.20;;;;;;5004335;28;20485;-74
2023/04/06 00:20:25;;;;;;;1.57;1.40;;;3.70;98.20;;;;;;5017967;28;20935;-74
2023/04/06 00:22:52;;;;;;;1.50;1.40;;;3.70;98.20;;;;;;5021520;28;20621;-72
2023/04/06 00:25:19;;;;;;;1.57;1.43;;;3.70;98.20;;;;;;5018384;28;20488;-72
2023/04/06 00:27:46;;;;;;;1.60;1.40;;;3.70;98.20;;;;;;5019031;28;20490;-72
2023/04/06 00:30:13;;;;;;;1.60;1.50;;;3.70;98.20;;;;;;5018492;28;20502;-72
2023/04/06 00:32:40;;;;;;;1.50;1.40;;;3.70;98.20;;;;;;5018565;28;20518;-72
2023/04/06 00:35:07;;;;;;;1.70;1.60;;;3.60;98.20;;;;;;5017761;28;20464;-72
2023/04/06 00:37:36;;;;;;;1.53;1.40;;;3.60;98.20;;;;;;5007508;28;20476;-70
2023/04/06 00:40:03;;;;;;;1.60;1.50;;;3.60;98.20;;;;;;5018298;28;20492;-72
2023/04/06 00:42:30;;;;;;;1.60;1.50;;;3.60;98.20;;;;;;4993736;28;20901;-72
2023/04/06 00:44:59;;;;;;;1.57;1.40;;;3.60;98.20;;;;;;5012195;28;20474;-72
2023/04/06 00:47:27;;;;;;;1.50;1.40;;;3.50;98.20;;;;;;5018902;28;20486;-74
2023/04/06 00:49:54;;;;;;;1.60;1.50;;;3.50;98.20;;;;;;5018405;28;20889;-74
2023/04/06 00:52:21;;;;;;;1.53;1.40;;;3.50;98.20;;;;;;5010254;28;20480;-72
2023/04/06 00:54:50;;;;;;;1.87;1.77;;;3.50;98.20;;;;;;5018737;28;20460;-73
2023/04/06 00:57:17;;;;;;;1.50;1.40;;;3.50;98.20;;;;;;5000100;28;20542;-74
2023/04/06 00:59:44;;;;;;;1.60;1.50;;;3.50;98.20;;;;;;5014786;28;20539;-75
2023/04/06 01:02:11;;;;;;;1.57;1.40;;;3.50;98.20;;;;;;5003420;28;20880;-71
2023/04/06 01:04:38;;;;;;;1.60;1.47;;;3.50;98.20;;;;;;5014080;28;20904;-74
2023/04/06 01:07:05;;;;;;;1.50;1.40;;;3.50;98.20;;;;;;5001104;28;20545;-74
2023/04/06 01:09:32;;;;;;;1.53;1.40;;;3.50;98.20;;;;;;5013632;28;20951;-74
2023/04/06 01:12:00;;;;;;;1.50;1.30;;;3.50;98.20;;;;;;4993771;28;20524;-74
2023/04/06 01:14:27;;;;;;;1.80;1.70;;;3.50;98.20;;;;;;5007342;28;20533;-74
2023/04/06 01:16:55;;;;;;;1.70;1.60;;;3.50;98.20;;;;;;5010282;28;20511;-74
2023/04/06 01:19:23;;;;;;;1.57;1.40;;;3.40;98.20;;;;;;5015790;28;20460;-74
2023/04/06 01:21:52;;;;;;;1.60;1.40;;;3.40;98.20;;;;;;5001363;28;20488;-74
2023/04/06 01:24:21;;;;;;;1.60;1.50;;;3.40;98.20;;;;;;5013589;28;20548;-73
2023/04/06 01:26:48;;;;;;;1.60;1.50;;;3.40;98.20;;;;;;5003438;28;20922;-74
2023/04/06 01:29:15;;;;;;;1.57;1.40;;;3.40;98.20;;;;;;5013111;28;20460;-74
2023/04/06 01:31:42;;;;;;;1.53;1.40;;;3.40;98.20;;;;;;5004104;28;20484;-74
2023/04/06 01:34:08;;;;;;;1.60;1.50;;;3.30;98.20;;;;;;4999055;28;20485;-74
2023/04/06 01:36:35;;;;;;;1.60;1.40;;;3.40;98.20;;;;;;4997322;28;20613;-74
2023/04/06 01:39:02;;;;;;;1.50;1.40;;;3.40;98.20;;;;;;5015598;28;20948;-74
2023/04/06 01:41:31;;;;;;;1.50;1.40;;;3.40;98.20;;;;;;5003612;28;20566;-74
2023/04/06 01:43:58;;;;;;;1.57;1.40;;;3.30;98.20;;;;;;5019808;28;20486;-74
2023/04/06 01:46:25;;;;;;;10.30;9.50;;;3.30;98.20;;;;;;5009915;28;20482;-73
2023/04/06 01:48:52;;;;;;;1.93;1.83;;;3.30;98.20;;;;;;5042734;23;20572;-75
2023/04/06 01:51:19;;;;;;;1.60;1.50;;;3.30;98.20;;;;;;5011132;28;20479;-73
2023/04/06 01:53:46;;;;;;;1.50;1.40;;;3.30;98.20;;;;;;5013204;28;20548;-73
2023/04/06 01:56:12;;;;;;;1.60;1.43;;;3.30;98.20;;;;;;4996103;28;20869;-73
2023/04/06 01:58:41;;;;;;;1.57;1.47;;;3.30;98.20;;;;;;5021974;28;20480;-73
2023/04/06 02:01:08;;;;;;;1.70;1.60;;;3.30;98.20;;;;;;4990818;28;20503;-73
2023/04/06 02:03:34;;;;;;;1.50;1.40;;;3.20;98.20;;;;;;5016398;28;20546;-73
2023/04/06 02:06:01;;;;;;;1.70;1.60;;;3.20;98.20;;;;;;4983401;28;20943;-73
2023/04/06 02:08:28;;;;;;;1.57;1.40;;;3.20;98.20;;;;;;5016974;28;21081;-73
2023/04/06 02:10:55;;;;;;;1.60;1.40;;;3.10;98.20;;;;;;4989313;28;20844;-73
2023/04/06 02:13:22;;;;;;;1.60;1.50;;;3.10;98.20;;;;;;5031258;28;20482;-73
2023/04/06 02:15:50;;;;;;;1.60;1.50;;;3.10;98.20;;;;;;5000488;28;20500;-73
2023/04/06 02:18:18;;;;;;;1.67;1.57;;;3.00;98.20;;;;;;5024696;28;20571;-73
2023/04/06 02:20:45;;;;;;;1.60;1.47;;;3.00;98.20;;;;;;5007640;28;20894;-73
2023/04/06 02:23:12;;;;;;;1.60;1.50;;;3.10;98.20;;;;;;5025592;28;20876;-73
2023/04/06 02:25:39;;;;;;;1.93;1.80;;;3.10;98.20;;;;;;5009090;28;20464;-73
2023/04/06 02:28:07;;;;;;;1.60;1.50;;;3.00;98.20;;;;;;5016731;28;20602;-73
2023/04/06 02:30:33;;;;;;;1.60;1.50;;;3.00;98.20;;;;;;5007904;28;20474;-73
2023/04/06 02:33:02;;;;;;;1.60;1.50;;;3.00;98.20;;;;;;5012920;28;20611;-73
2023/04/06 02:35:30;;;;;;;1.70;1.60;;;3.00;98.20;;;;;;5006628;28;20458;-73
2023/04/06 02:37:57;;;;;;;1.63;1.53;;;3.00;98.20;;;;;;5019409;28;20702;-73
2023/04/06 02:40:23;;;;;;;1.60;1.47;;;3.00;98.20;;;;;;5006649;28;20816;-73
2023/04/06 02:42:50;;;;;;;1.60;1.50;;;3.00;98.20;;;;;;5007244;28;20985;-73
2023/04/06 02:45:17;;;;;;;1.70;1.60;;;3.00;98.20;;;;;;4989289;28;20465;-73
2023/04/06 02:47:44;;;;;;;1.60;1.40;;;2.90;98.20;;;;;;5029581;28;20474;-73
2023/04/06 02:50:12;;;;;;;1.53;1.40;;;2.90;98.20;;;;;;5010324;28;20468;-73
2023/04/06 02:52:39;;;;;;;1.60;1.50;;;2.90;98.20;;;;;;4998270;28;21117;-73
2023/04/06 02:55:07;;;;;;;1.57;1.40;;;2.90;98.20;;;;;;5006960;28;21014;-73
2023/04/06 02:57:34;;;;;;;1.60;1.50;;;2.90;98.20;;;;;;4999832;28;21133;-73
2023/04/06 03:00:01;;;;;;;1.70;1.60;;;3.00;98.20;;;;;;5003855;28;20484;-73
2023/04/06 03:02:28;;;;;;;1.57;1.40;;;3.00;98.20;;;;;;4998377;28;20488;-73
2023/04/06 03:04:55;;;;;;;1.60;1.50;;;3.00;98.20;;;;;;5005090;28;20464;-73
2023/04/06 03:07:23;;;;;;;1.57;1.47;;;3.00;98.20;;;;;;5000020;28;20476;-73
2023/04/06 03:09:50;;;;;;;1.60;1.50;;;3.00;98.20;;;;;;5008085;28;20485;-73
2023/04/06 03:12:17;;;;;;;1.60;1.50;;;3.00;98.20;;;;;;5007444;28;20475;-73
2023/04/06 03:14:44;;;;;;;1.63;1.53;;;3.00;98.20;;;;;;5011230;28;20978;-73
2023/04/06 03:17:11;;;;;;;18.23;16.33;;;3.00;98.20;;;;;;5000006;28;20538;-73
2023/04/06 03:19:37;;;;;;;1.60;1.50;;;3.00;98.20;;;;;;5008947;28;20567;-73
2023/04/06 03:22:04;;;;;;;1.57;1.40;;;3.00;98.20;;;;;;4999378;28;20959;-73
2023/04/06 03:24:33;;;;;;;1.70;1.60;;;3.00;98.20;;;;;;5003732;28;20491;-73
2023/04/06 03:27:00;;;;;;;1.80;1.70;;;3.00;98.20;;;;;;4999797;28;20480;-73
2023/04/06 03:29:27;;;;;;;1.57;1.43;;;3.00;98.20;;;;;;5005079;28;20588;-73
2023/04/06 03:31:54;;;;;;;1.50;1.40;;;3.00;98.20;;;;;;4999357;28;20604;-74
2023/04/06 03:34:20;;;;;;;1.60;1.50;;;3.00;98.20;;;;;;5006668;28;20471;-74
2023/04/06 03:36:47;;;;;;;1.60;1.50;;;3.00;98.20;;;;;;4999812;28;20487;-74
2023/04/06 03:39:14;;;;;;;1.63;1.53;;;3.00;98.20;;;;;;5005209;28;20582;-73
2023/04/06 03:41:44;;;;;;;1.60;1.50;;;2.90;98.20;;;;;;5003531;28;21023;-74
2023/04/06 03:44:11;;;;;;;1.60;1.50;;;2.90;98.20;;;;;;5014021;28;20468;-74
2023/04/06 03:46:37;;;;;;;1.53;1.40;;;2.90;98.20;;;;;;4999648;28;20534;-73
2023/04/06 03:49:04;;;;;;;1.60;1.50;;;2.90;98.20;;;;;;5010022;28;20683;-73
2023/04/06 03:51:31;;;;;;;1.63;1.53;;;2.90;98.20;;;;;;5001237;28;20477;-73
2023/04/06 03:53:58;;;;;;;1.67;1.57;;;2.80;98.20;;;;;;5017607;28;20521;-73
2023/04/06 03:56:25;;;;;;;1.57;1.40;;;2.80;98.20;;;;;;5005745;28;21046;-73
2023/04/06 03:58:53;;;;;;;1.53;1.40;;;2.80;98.20;;;;;;5018464;28;20566;-74
2023/04/06 04:01:20;;;;;;;1.53;1.43;;;2.80;98.20;;;;;;4993238;28;20481;-73
2023/04/06 04:03:47;;;;;;;1.70;1.60;;;2.80;98.20;;;;;;5014343;28;20459;-73
2023/04/06 04:06:14;;;;;;;1.60;1.50;;;2.80;98.20;;;;;;5001405;28;20507;-73
2023/04/06 04:08:41;;;;;;;1.60;1.50;;;2.80;98.20;;;;;;5020298;28;20480;-74
2023/04/06 04:11:07;;;;;;;1.50;1.40;;;2.80;98.20;;;;;;5002181;28;20569;-73
2023/04/06 04:13:34;;;;;;;1.60;1.50;;;2.80;98.20;;;;;;5027414;28;20471;-73
2023/04/06 04:16:03;;;;;;;1.53;1.40;;;2.80;98.20;;;;;;4998720;28;20556;-73
2023/04/06 04:18:30;;;;;;;1.60;1.47;;;2.80;98.20;;;;;;5016042;28;20497;-73
2023/04/06 04:20:56;;;;;;;1.50;1.40;;;2.80;98.20;;;;;;4998904;28;20572;-74
2023/04/06 04:23:24;;;;;;;1.53;1.40;;;2.80;98.20;;;;;;5013951;28;20460;-74
2023/04/06 04:25:50;;;;;;;1.60;1.50;;;2.80;98.20;;;;;;4997614;28;20467;-73
2023/04/06 04:28:17;;;;;;;1.60;1.50;;;2.80;98.20;;;;;;5020957;28;20483;-73
2023/04/06 04:30:44;;;;;;;1.53;1.40;;;2.80;98.20;;;;;;5007188;28;20471;-74
2023/04/06 04:33:13;;;;;;;1.60;1.50;;;2.70;98.20;;;;;;4991384;28;20483;-73
2023/04/06 04:35:39;;;;;;;1.50;1.40;;;2.70;98.20;;;;;;5008456;28;20488;-73
2023/04/06 04:38:06;;;;;;;1.50;1.40;;;2.70;98.20;;;;;;5005588;28;20492;-74
2023/04/06 04:40:33;;;;;;;1.60;1.50;;;2.70;98.20;;;;;;5007552;28;20466;-74
2023/04/06 04:43:00;;;;;;;1.53;1.40;;;2.70;98.20;;;;;;5011085;28;20582;-73
2023/04/06 04:45:27;;;;;;;1.53;1.40;;;2.70;98.20;;;;;;5009361;28;20482;-74
2023/04/06 04:47:54;;;;;;;1.70;1.60;;;2.70;98.20;;;;;;5008278;28;20555;-74
2023/04/06 04:50:23;;;;;;;1.60;1.50;;;2.70;98.20;;;;;;5006190;28;20507;-74
2023/04/06 04:52:49;;;;;;;1.50;1.40;;;2.80;98.20;;;;;;5005062;28;20493;-74
2023/04/06 04:55:19;;;;;;;1.60;1.40;;;2.80;98.20;;;;;;5003767;28;20826;-74
2023/04/06 04:57:48;;;;;;;1.60;1.50;;;2.80;98.20;;;;;;5006584;28;20467;-74
2023/04/06 05:00:15;;;;;;;4.83;4.50;;;2.80;98.20;;;;;;5005622;28;20495;-74
2023/04/06 05:02:42;;;;;;;1.60;1.50;;;2.80;98.20;;;;;;5008429;28;20478;-75
2023/04/06 05:05:09;;;;;;;11.70;11.00;;;2.80;98.20;;;;;;5010274;28;20475;-74
2023/04/06 05:07:38;;;;;;;1.70;1.60;;;2.80;98.20;;;;;;5028614;28;20474;-78
2023/04/06 05:10:06;;;;;;;1.50;1.40;;;2.90;98.20;;;;;;5008755;28;20583;-78
2023/04/06 05:12:33;;;;;;;1.60;1.50;;;2.90;98.20;;;;;;5017202;28;20520;-79
2023/04/06 05:15:00;;;;;;;1.60;1.50;;;2.90;98.20;;;;;;5016716;28;20484;-76
2023/04/06 05:17:27;;;;;;;1.60;1.50;;;2.90;98.20;;;;;;5015168;28;20479;-74
2023/04/06 05:19:54;;;;;;;1.60;1.40;;;3.00;98.20;;;;;;5011631;28;20500;-75
2023/04/06 05:22:21;;;;;;;1.50;1.40;;;3.00;98.20;;;;;;5008633;28;20484;-74
2023/04/06 05:24:49;;;;;;;1.60;1.50;;;3.00;98.20;;;;;;5008898;28;20468;-75
2023/04/06 05:27:16;;;;;;;1.53;1.43;;;3.10;98.20;;;;;;5008057;28;20554;-75
2023/04/06 05:29:43;;;;;;;2.67;2.47;;;3.10;98.20;;;;;;5011805;28;20483;-75
2023/04/06 05:32:11;;;;;;;1.60;1.50;;;3.10;98.20;;;;;;5006102;28;20573;-75
2023/04/06 05:34:38;;;;;;;1.50;1.40;;;3.20;98.20;;;;;;5011843;28;20465;-75
2023/04/06 05:37:05;;;;;;;1.53;1.40;;;3.20;98.20;;;;;;5010154;28;20479;-75
2023/04/06 05:39:32;;;;;;;1.60;1.50;;;3.20;98.20;;;;;;5013545;28;20488;-75
2023/04/06 05:42:04;;;;;;;1.60;1.50;;;3.30;98.20;;;;;;5007733;28;20486;-75
2023/04/06 05:44:31;;;;;;;1.57;1.40;;;3.30;98.20;;;;;;5012119;28;20507;-75
2023/04/06 05:46:58;;;;;;;1.53;1.40;;;3.30;98.20;;;;;;5005198;28;20583;-75
2023/04/06 05:49:25;;;;;;;1.60;1.40;;;3.40;98.20;;;;;;5012317;28;20523;-75
2023/04/06 05:51:52;;;;;;;1.60;1.50;;;3.40;98.20;;;;;;5003490;28;21456;-77
2023/04/06 05:54:19;;;;;;;1.50;1.40;;;3.50;98.20;;;;;;5011333;28;20464;-76
2023/04/06 05:56:46;;;;;;;1.53;1.33;;;3.60;98.20;;;;;;4999562;28;20537;-76
2023/04/06 05:59:15;;;;;;;1.67;1.57;;;3.70;98.20;;;;;;5011985;28;20494;-76
2023/04/06 06:01:42;;;;;;;1.60;1.40;;;3.80;98.20;;;;;;5002624;28;20513;-76
2023/04/06 06:04:08;;;;;;;1.53;1.40;;;3.90;98.20;;;;;;5013686;28;20857;-76
2023/04/06 06:06:36;;;;;;;1.53;1.40;;;4.10;98.20;;;;;;5005866;28;20913;-77
2023/04/06 06:09:03;;;;;;;1.63;1.53;;;4.30;98.20;;;;;;5016233;28;20495;-76
2023/04/06 06:11:30;;;;;;;1.53;1.40;;;4.40;98.20;;;;;;5002254;28;20510;-77
2023/04/06 06:13:57;;;;;;;1.60;1.50;;;4.60;98.10;;;;;;5016061;28;20950;-77
2023/04/06 06:16:25;;;;;;;1.60;1.40;;;4.80;97.50;;;;;;5002445;28;20547;-77
2023/04/06 06:18:52;;;;;;;1.53;1.40;;;4.90;96.40;;;;;;5017378;28;20491;-77
2023/04/06 06:21:19;;;;;;;1.57;1.40;;;5.00;95.20;;;;;;5006216;28;20550;-77
2023/04/06 06:23:48;;;;;;;1.50;1.40;;;5.20;95.40;;;;;;5029669;28;20813;-77
2023/04/06 06:26:14;;;;;;;1.57;1.37;;;5.30;94.40;;;;;;5006350;28;21008;-77
2023/04/06 06:28:41;;;;;;;1.57;1.40;;;5.40;94.20;;;;;;5029424;28;20482;-78
2023/04/06 06:31:08;;;;;;;1.60;1.50;;;5.60;94.00;;;;;;4998542;28;20487;-77
2023/04/06 06:33:36;;;;;;;2.57;2.37;;;5.80;93.50;;;;;;5016686;28;20470;-79
2023/04/06 06:36:03;;;;;;;1.53;1.30;;;6.00;93.40;;;;;;5000190;28;20456;-78
2023/04/06 06:38:30;;;;;;;1.50;1.30;;;6.20;91.60;;;;;;5017121;28;20484;-78
2023/04/06 06:40:57;;;;;;;1.50;1.20;;;6.30;91.90;;;;;;4997917;28;20511;-78
2023/04/06 06:43:24;;;;;;;1.50;1.20;;;6.50;90.70;;;;;;5014495;28;20456;-78
2023/04/06 06:45:51;;;;;;;1.53;1.30;;;6.60;90.00;;;;;;4999446;28;20535;-78
2023/04/06 06:48:17;;;;;;;1.53;1.30;;;6.80;89.70;;;;;;5037903;28;20519;-78
2023/04/06 06:50:48;;;;;;;1.50;1.30;;;6.90;89.00;;;;;;5008027;28;20849;-78
2023/04/06 06:53:15;;;;;;;1.50;1.20;;;6.90;88.40;;;;;;4976676;28;20472;-78
2023/04/06 06:55:43;;;;;;;1.50;1.33;;;7.00;88.60;;;;;;4986235;28;20551;-76
2023/04/06 06:58:11;;;;;;;1.50;1.30;;;7.10;88.30;;;;;;4976202;28;20547;-76
2023/04/06 07:00:37;;;;;;;3.77;3.57;;;7.20;87.60;;;;;;4988312;28;20500;-76
2023/04/06 07:03:04;;;;;;;8.50;6.20;;;7.30;88.40;;;;;;5026232;28;20490;-77
2023/04/06 07:05:31;;;;;;;2.33;2.13;;;7.50;87.80;;;;;;5007516;28;20914;-76
2023/04/06 07:08:00;;;;;;;1.60;1.50;;;7.70;87.20;;;;;;5005550;28;20940;-76
2023/04/06 07:10:27;;;;;;;1.73;1.40;;;7.90;86.90;;;;;;5005101;28;20464;-75
2023/04/06 07:12:54;;;;;;;2.40;2.13;;;8.00;86.50;;;;;;5009496;28;20495;-76
2023/04/06 07:15:21;;;;;;;2.10;1.97;;;8.30;86.70;;;;;;5008102;28;20464;-75
2023/04/06 07:17:48;;;;;;;1.50;1.20;;;8.60;86.10;;;;;;5005495;28;20566;-75
2023/04/06 07:20:15;;;;;;;1.50;1.20;;;8.80;84.90;;;;;;5005432;28;20514;-77
2023/04/06 07:22:44;;;;;;;2.43;1.73;;;8.90;84.50;;;;;;5005176;28;20483;-76
2023/04/06 07:25:12;;;;;;;1.50;1.10;;;9.00;84.30;;;;;;5006590;28;20464;-77
2023/04/06 07:27:39;;;;;;;1.50;1.20;;;9.10;83.60;;;;;;5022086;28;20522;-76
2023/04/06 07:30:08;;;;;;;1.80;1.70;;;9.00;83.70;;;;;;5019101;28;20559;-76
2023/04/06 07:32:35;;;;;;;1.50;1.30;;;8.90;83.60;;;;;;5009642;28;20855;-77
2023/04/06 07:35:02;;;;;;;2.07;1.87;;;8.90;84.10;;;;;;5007332;28;20471;-76
2023/04/06 07:37:29;;;;;;;1.50;1.10;;;8.80;83.30;;;;;;5009099;28;20569;-77
2023/04/06 07:39:56;;;;;;;1.50;1.20;;;8.70;84.30;;;;;;5007790;28;20521;-78
2023/04/06 07:42:24;;;;;;;1.43;1.10;;;8.70;83.90;;;;;;5011200;28;20506;-76
2023/04/06 07:44:51;;;;;;;1.50;1.10;;;8.50;84.30;;;;;;5007770;28;20911;-77
2023/04/06 07:47:18;;;;;;;1.50;1.20;;;8.50;84.40;;;;;;5018541;28;20565;-78
2023/04/06 07:52:17;;;;;;;1.50;1.10;;;8.50;84.60;;;;;;5019679;28;21008;-78
2023/04/06 07:54:44;;;;;;;1.50;1.10;;;8.50;85.30;;;;;;5020395;28;21001;-77
2023/04/06 07:57:11;;;;;;;1.50;1.10;;;8.70;85.20;;;;;;5020972;28;20578;-76
2023/04/06 07:59:39;;;;;;;1.50;1.10;;;8.80;84.60;;;;;;5024922;28;20547;-75
2023/04/06 08:02:06;;;;;;;1.50;1.30;;;9.00;83.90;;;;;;5000905;28;20534;-77
2023/04/06 08:04:33;;;;;;;1.50;1.10;;;9.10;84.10;;;;;;5008842;28;20467;-76
2023/04/06 08:07:00;;;;;;;1.50;1.17;;;9.20;83.60;;;;;;5006865;28;20928;-76
2023/04/06 08:09:27;;;;;;;1.50;1.10;;;9.30;83.30;;;;;;5016148;28;20853;-80
2023/04/06 08:11:54;;;;;;;1.50;1.10;;;9.40;82.70;;;;;;5003305;28;20501;-76
2023/04/06 08:14:21;;;;;;;1.50;1.20;;;9.60;83.00;;;;;;5014832;28;20464;-77
2023/04/06 08:16:49;;;;;;;2.27;2.07;;;9.80;83.20;;;;;;5004508;28;21077;-79
2023/04/06 08:19:17;;;;;;;1.60;1.50;;;10.10;81.80;;;;;;5018027;28;20459;-75
2023/04/06 08:21:44;;;;;;;1.50;1.10;;;10.40;80.60;;;;;;5001108;28;20636;-76
2023/04/06 08:24:11;;;;;;;1.50;1.17;;;10.50;80.40;;;;;;5017461;28;20527;-77
2023/04/06 08:26:37;;;;;;;1.50;1.10;;;10.70;80.50;;;;;;5006133;28;20511;-77
2023/04/06 08:29:07;;;;;;;1.50;1.10;;;10.70;79.50;;;;;;5016262;28;20592;-77
2023/04/06 08:31:34;;;;;;;1.50;1.10;;;10.80;79.40;;;;;;5005152;28;20501;-78
2023/04/06 08:34:03;;;;;;;1.50;1.00;;;10.80;79.10;;;;;;5017245;28;20993;-78
2023/04/06 08:36:30;;;;;;;1.50;1.10;;;10.80;79.50;;;;;;5005482;28;20545;-76
2023/04/06 08:38:57;;;;;;;1.47;1.10;;;10.90;79.60;;;;;;5020304;28;20455;-77
2023/04/06 08:41:24;;;;;;;1.50;1.20;;;11.10;79.80;;;;;;5006529;28;20947;-78
2023/04/06 08:44:01;;;;;;;2.13;1.93;;;11.20;78.40;;;;;;5024881;28;20527;-78
2023/04/06 08:46:30;;;;;;;1.50;1.10;;;11.40;78.40;;;;;;5009121;28;20570;-77
2023/04/06 08:48:57;;;;;;;1.50;1.10;;;11.60;78.80;;;;;;5024046;28;20546;-77
2023/04/06 08:51:27;;;;;;;1.50;1.10;;;11.90;77.40;;;;;;5010025;28;20479;-77
2023/04/06 08:53:55;;;;;;;1.50;1.10;;;12.10;76.70;;;;;;5022679;28;21262;-77
2023/04/06 08:56:23;;;;;;;1.50;1.10;;;12.20;76.00;;;;;;5007609;28;21001;-78
2023/04/06 08:58:50;;;;;;;1.50;1.00;;;12.40;76.40;;;;;;5023970;28;20459;-75
2023/04/06 09:01:21;;;;;;;1.50;1.10;;;12.70;76.20;;;;;;5004667;28;20535;-78
2023/04/06 09:03:51;;;;;;;3.50;3.30;;;12.80;75.40;;;;;;5020889;28;20558;-76
2023/04/06 09:06:18;;;;;;;1.43;0.90;;;12.80;74.30;;;;;;5007520;28;20562;-76
2023/04/06 09:08:46;;;;;;;1.47;1.00;;;12.70;74.20;;;;;;5025462;28;20484;-77
2023/04/06 09:11:14;;;;;;;1.50;1.00;;;12.80;74.80;;;;;;5004268;28;20578;-76
2023/04/06 09:13:49;;;;;;;1.50;1.10;;;12.90;74.40;;;;;;5021554;28;20460;-78
2023/04/06 09:16:16;;;;;;;2.93;2.73;;;13.00;74.50;;;;;;5004365;28;20526;-79
2023/04/06 09:18:44;;;;;;;1.47;1.00;;;13.00;73.50;;;;;;5020192;28;20551;-76
2023/04/06 09:21:11;;;;;;;1.50;1.00;;;12.90;74.40;;;;;;4994906;28;20529;-73
2023/04/06 09:23:38;;;;;;;1.47;1.00;;;13.00;74.60;;;;;;5020227;28;20515;-73
2023/04/06 09:26:12;;;;;;;1.47;1.00;;;13.00;73.60;;;;;;4995059;28;20458;-77
2023/04/06 09:28:46;;;;;;;1.47;0.90;;;13.00;73.40;;;;;;5021514;28;20887;-77
2023/04/06 09:31:14;;;;;;;4.37;3.97;;;13.10;74.10;;;;;;4993803;28;20466;-77
2023/04/06 09:33:43;;;;;;;1.50;1.10;;;13.30;73.70;;;;;;5012457;28;20486;-74
2023/04/06 09:36:10;;;;;;;1.50;0.90;;;13.50;73.70;;;;;;4993788;28;20509;-75
2023/04/06 09:38:53;;;;;;;1.47;1.00;;;13.50;72.40;;;;;;5009402;28;20457;-74
2023/04/06 09:41:26;;;;;;;1.50;1.20;;;13.50;72.30;;;;;;4990843;28;20567;-74
2023/04/06 09:44:02;;;;;;;1.43;0.90;;;13.60;72.40;;;;;;5009261;28;20475;-74
2023/04/06 09:46:33;;;;;;;1.50;1.20;;;13.50;71.60;;;;;;4995690;28;20874;-74
2023/04/06 09:49:01;;;;;;;1.90;1.70;;;13.50;72.80;;;;;;5014982;28;20861;-75
2023/04/06 09:51:31;;;;;;;1.50;1.10;;;13.60;72.80;;;;;;4997623;28;20488;-76
2023/04/06 09:54:01;;;;;;;1.40;1.00;;;13.80;72.40;;;;;;5005694;28;20542;-74
2023/04/06 09:56:32;;;;;;;1.50;1.10;;;13.90;71.90;;;;;;4995600;28;20510;-73
2023/04/06 09:59:03;;;;;;;1.70;1.40;;;14.00;71.70;;;;;;5007988;28;20847;-73
2023/04/06 10:01:34;;;;;;;1.50;1.03;;;14.20;72.30;;;;;;4994587;28;21048;-74
2023/04/06 10:04:11;;;;;;;1.50;1.00;;;14.30;71.60;;;;;;5003534;28;20456;-74
2023/04/06 10:06:39;;;;;;;2.87;2.33;;;14.50;71.30;;;;;;4992785;28;20579;-74
2023/04/06 10:09:09;;;;;;;2.20;1.30;;;14.80;72.30;;;;;;5009619;28;20876;-74
2023/04/06 10:15:00;;;;;;;1.50;0.90;;;15.40;71.00;;;;;;4994396;28;20497;-75
2023/04/06 10:17:28;;;;;;;1.67;1.50;;;15.60;70.50;;;;;;5006352;28;20481;-75
2023/04/06 10:20:07;;;;;;;1.50;1.10;;;15.50;70.10;;;;;;5004101;28;20453;-75
2023/04/06 10:22:42;;;;;;;1.50;1.20;;;15.50;70.80;;;;;;5003074;28;20491;-76
2023/04/06 10:25:10;;;;;;;1.43;0.90;;;15.50;71.40;;;;;;4998595;28;20467;-74
2023/04/06 10:27:37;;;;;;;1.47;0.90;;;15.60;71.10;;;;;;5004843;28;20485;-73
2023/04/06 10:30:08;;;;;;;1.50;1.33;;;15.70;71.00;;;;;;4999928;28;20487;-74
2023/04/06 10:32:37;;;;;;;1.50;1.00;;;15.50;70.80;;;;;;4998904;28;20480;-76
2023/04/06 10:35:09;;;;;;;1.43;0.90;;;15.70;70.90;;;;;;4998211;28;20465;-75
2023/04/06 10:37:53;;;;;;;1.43;1.00;;;15.90;70.90;;;;;;5001082;28;20624;-74
2023/04/06 10:40:27;;;;;;;1.50;1.10;;;16.30;70.70;;;;;;4996163;28;20547;-74
2023/04/06 10:42:56;;;;;;;1.43;0.90;;;16.30;70.60;;;;;;5002692;28;20868;-74
2023/04/06 10:45:26;;;;;;;1.47;0.90;;;16.40;69.20;;;;;;4996614;28;20556;-75
2023/04/06 10:47:54;;;;;;;1.40;0.90;;;16.40;68.50;;;;;;5004065;28;20484;-76
2023/04/06 10:50:21;;;;;;;1.50;1.00;;;16.20;68.70;;;;;;4997779;28;20516;-74
2023/04/06 10:52:59;;;;;;;1.43;0.90;;;16.00;69.20;;;;;;5005621;28;20574;-74
2023/04/06 10:55:33;;;;;;;1.50;1.20;;;15.90;69.70;;;;;;5001638;28;20614;-74
2023/04/06 10:58:00;;;;;;;1.47;0.90;;;15.90;70.50;;;;;;5006935;28;20891;-74
2023/04/06 11:00:29;;;;;;;1.50;1.20;;;16.00;70.50;;;;;;4994095;28;20991;-75
2023/04/06 11:03:01;;;;;;;1.47;1.00;;;16.20;70.00;;;;;;4998797;28;20475;-74
2023/04/06 11:05:28;;;;;;;1.43;0.90;;;16.30;69.60;;;;;;4991115;28;20492;-75
2023/04/06 11:07:55;;;;;;;1.40;0.90;;;16.30;69.10;;;;;;4995986;28;20479;-74
2023/04/06 11:10:23;;;;;;;3.07;2.87;;;16.30;69.20;;;;;;4993604;28;20518;-74
2023/04/06 11:12:54;;;;;;;1.60;1.30;;;16.20;68.30;;;;;;5000696;28;20594;-74
2023/04/06 11:15:21;;;;;;;1.50;1.00;;;16.20;69.30;;;;;;4997927;28;20461;-74
2023/04/06 11:17:50;;;;;;;1.40;0.90;;;16.20;69.30;;;;;;5003763;28;20527;-74
2023/04/06 11:20:19;;;;;;;1.40;0.90;;;16.30;69.10;;;;;;4997713;28;20499;-74
2023/04/06 11:22:52;;;;;;;1.40;0.90;;;16.20;69.50;;;;;;5004482;28;20483;-74
2023/04/06 11:25:19;;;;;;;1.50;1.30;;;16.20;70.70;;;;;;4996576;28;20813;-74
2023/04/06 11:27:47;;;;;;;1.43;0.90;;;16.30;70.40;;;;;;5004262;28;20511;-74
2023/04/06 11:30:15;;;;;;;1.40;1.00;;;16.30;69.70;;;;;;4997643;28;20584;-74
2023/04/06 11:32:44;;;;;;;1.47;0.90;;;16.30;69.80;;;;;;5003579;28;20487;-74
2023/04/06 11:35:21;;;;;;;1.40;1.00;;;16.30;70.30;;;;;;5001907;28;20471;-74
2023/04/06 11:37:49;;;;;;;1.47;0.90;;;16.30;71.20;;;;;;5000560;28;20484;-76
2023/04/06 11:40:16;;;;;;;1.40;0.90;;;16.30;70.80;;;;;;4995401;28;20563;-77
2023/04/06 11:42:44;;;;;;;1.40;0.90;;;16.30;71.50;;;;;;5001004;28;20540;-75
2023/04/06 11:45:16;;;;;;;2.37;2.17;;;16.30;71.80;;;;;;4999800;28;20495;-78
2023/04/06 11:47:43;;;;;;;1.40;0.90;;;16.40;71.10;;;;;;5000311;28;20514;-75
2023/04/06 11:50:11;;;;;;;1.47;0.90;;;16.40;71.20;;;;;;4991385;28;20492;-76
2023/04/06 11:52:41;;;;;;;1.40;0.90;;;16.50;70.60;;;;;;5003962;28;20494;-76
2023/04/06 11:55:14;;;;;;;1.50;1.00;;;16.60;70.70;;;;;;4994801;28;20471;-76
2023/04/06 11:57:43;;;;;;;1.93;1.73;;;16.60;69.30;;;;;;5000381;28;20487;-73
2023/04/06 12:00:12;;;;;;;1.40;0.90;;;16.60;69.40;;;;;;4996299;28;20484;-74
2023/04/06 12:02:39;;;;;;;1.43;0.90;;;16.60;69.20;;;;;;5003228;28;21077;-75
2023/04/06 12:05:08;;;;;;;1.40;0.90;;;16.60;69.90;;;;;;4998982;28;20456;-76
2023/04/06 12:07:35;;;;;;;1.43;0.90;;;16.60;69.80;;;;;;5001054;28;20522;-75
2023/04/06 12:10:04;;;;;;;1.40;0.90;;;16.70;69.90;;;;;;4989657;28;20494;-74
2023/04/06 12:12:31;;;;;;;1.50;1.10;;;16.80;69.60;;;;;;4996462;28;20490;-74
2023/04/06 12:14:59;;;;;;;1.40;1.00;;;16.80;69.30;;;;;;4998766;28;21017;-74
2023/04/06 12:17:26;;;;;;;1.50;1.00;;;16.80;69.80;;;;;;5001799;28;20476;-74
2023/04/06 12:19:56;;;;;;;1.47;0.90;;;16.80;69.60;;;;;;5003919;28;20521;-74
2023/04/06 12:22:23;;;;;;;1.43;0.90;;;16.80;70.00;;;;;;4999956;28;20982;-75
2023/04/06 12:24:50;;;;;;;1.50;1.00;;;16.80;70.40;;;;;;5003956;28;20498;-77
2023/04/06 12:27:18;;;;;;;1.40;0.90;;;16.70;70.20;;;;;;5007352;28;20534;-77
2023/04/06 12:29:45;;;;;;;1.43;0.90;;;16.70;70.10;;;;;;5005914;28;20559;-76
2023/04/06 12:32:12;;;;;;;1.40;0.90;;;16.60;70.00;;;;;;5002247;28;20484;-78
2023/04/06 12:34:39;;;;;;;1.47;0.90;;;16.60;70.10;;;;;;5005454;28;20471;-75
2023/04/06 12:37:07;;;;;;;1.47;0.90;;;16.60;69.90;;;;;;5003509;28;20492;-76
2023/04/06 12:39:35;;;;;;;1.43;0.90;;;16.60;70.20;;;;;;5006074;28;20577;-74
2023/04/06 12:42:02;;;;;;;1.43;1.00;;;16.50;71.50;;;;;;5000276;28;21046;-77
2023/04/06 12:44:30;;;;;;;1.40;0.90;;;16.50;70.90;;;;;;5010916;28;20574;-76
2023/04/06 12:46:57;;;;;;;1.40;0.97;;;16.40;71.30;;;;;;4994658;28;20480;-75
2023/04/06 12:49:24;;;;;;;1.43;0.90;;;16.40;71.40;;;;;;4998817;28;20566;-76
2023/04/06 12:51:51;;;;;;;1.43;0.90;;;16.40;72.10;;;;;;4992319;28;20574;-74
2023/04/06 12:54:18;;;;;;;1.47;0.90;;;16.40;71.50;;;;;;4998582;28;20464;-75
2023/04/06 12:56:45;;;;;;;1.70;1.60;;;16.30;71.60;;;;;;4996856;28;21076;-75
2023/04/06 12:59:12;;;;;;;1.40;0.90;;;16.30;70.30;;;;;;5003683;28;20461;-75
2023/04/06 13:01:40;;;;;;;1.97;1.77;;;16.30;70.90;;;;;;4993599;28;20511;-76